Time;durP1;ratioP1;P1;durP2;ratioP2;P2;SDS_P1;SDS_P2;PMS_P1;PMS_P2;Temp;Humidity;BMP_temperature;BMP_pressure;BME280_temperature;BME280_humidity;BME280_pressure;Samples;Min_cycle;Max_cycle;Signal;HPM_P1;HPM_P2
2022/10/15 00:01:05;;;;;;;0.00;0.00;;;13.90;99.90;;;;;;5036682;28;20354;-75
2022/10/15 00:03:36;;;;;;;0.00;0.00;;;13.90;99.90;;;;;;5037359;28;20252;-74
2022/10/15 00:06:06;;;;;;;0.00;0.00;;;13.90;99.90;;;;;;5020543;28;20693;-73
2022/10/15 00:08:34;;;;;;;0.00;0.00;;;13.90;99.90;;;;;;5032175;28;20223;-75
2022/10/15 00:11:07;;;;;;;0.00;0.00;;;13.90;99.90;;;;;;5033660;28;20202;-74
2022/10/15 00:13:37;;;;;;;0.00;0.00;;;13.90;99.90;;;;;;5032403;28;20230;-73
2022/10/15 00:16:08;;;;;;;0.00;0.00;;;13.80;99.90;;;;;;5030587;28;20215;-74
2022/10/15 00:18:36;;;;;;;0.00;0.00;;;13.80;99.90;;;;;;5034868;28;20222;-74
2022/10/15 00:21:07;;;;;;;0.00;0.00;;;13.80;99.90;;;;;;5034960;28;20199;-77
2022/10/15 00:23:36;;;;;;;0.05;0.05;;;13.90;99.90;;;;;;5032529;28;20573;-77
2022/10/15 00:26:06;;;;;;;0.03;0.03;;;13.80;99.90;;;;;;5031096;28;20618;-74
2022/10/15 00:28:36;;;;;;;0.00;0.00;;;13.80;99.90;;;;;;5034249;28;20252;-74
2022/10/15 00:31:06;;;;;;;0.00;0.00;;;13.90;99.90;;;;;;5036338;28;20195;-74
2022/10/15 00:33:34;;;;;;;0.00;0.00;;;13.80;99.90;;;;;;5027568;28;20298;-75
2022/10/15 00:36:04;;;;;;;0.00;0.00;;;13.80;99.90;;;;;;5030357;28;20780;-73
2022/10/15 00:38:33;;;;;;;0.10;0.10;;;13.80;99.90;;;;;;5033216;28;20629;-73
2022/10/15 00:41:02;;;;;;;0.05;0.05;;;13.90;99.90;;;;;;5033071;28;20214;-77
2022/10/15 00:43:45;;;;;;;0.00;0.00;;;13.80;99.90;;;;;;5030196;28;20210;-73
2022/10/15 00:46:18;;;;;;;0.00;0.00;;;13.80;99.90;;;;;;5029826;28;20620;-75
2022/10/15 00:48:49;;;;;;;0.00;0.00;;;13.90;99.90;;;;;;5031417;28;20206;-74
2022/10/15 00:51:19;;;;;;;0.00;0.00;;;13.90;99.90;;;;;;5031067;28;20281;-74
2022/10/15 00:53:49;;;;;;;0.10;0.10;;;13.90;99.90;;;;;;5032550;28;20213;-74
2022/10/15 00:56:20;;;;;;;0.00;0.00;;;13.90;99.90;;;;;;5030392;28;20290;-74
2022/10/15 00:58:52;;;;;;;0.00;0.00;;;13.90;99.90;;;;;;5032682;28;20214;-73
2022/10/15 01:01:26;;;;;;;0.00;0.00;;;13.90;99.90;;;;;;5036935;28;20224;-73
2022/10/15 01:03:55;;;;;;;0.00;0.00;;;13.90;99.90;;;;;;5033800;28;20674;-74
2022/10/15 01:06:26;;;;;;;0.00;0.00;;;13.90;99.90;;;;;;5019512;28;20245;-75
2022/10/15 01:08:54;;;;;;;0.00;0.00;;;13.90;99.90;;;;;;5033245;28;20183;-75
2022/10/15 01:11:37;;;;;;;0.00;0.00;;;14.00;99.90;;;;;;5034574;28;20214;-74
2022/10/15 01:14:22;;;;;;;0.00;0.00;;;14.00;99.90;;;;;;5019754;28;20202;-74
2022/10/15 01:17:00;;;;;;;0.00;0.00;;;14.00;99.90;;;;;;5031347;28;20243;-74
2022/10/15 01:20:01;;;;;;;0.00;0.00;;;14.00;99.90;;;;;;5030578;28;20674;-74
2022/10/15 01:22:40;;;;;;;0.00;0.00;;;14.00;99.90;;;;;;5024671;28;20203;-77
2022/10/15 01:25:25;;;;;;;0.00;0.00;;;14.00;99.90;;;;;;5022918;28;20206;-74
2022/10/15 01:27:56;;;;;;;0.00;0.00;;;14.00;99.90;;;;;;5034147;28;20223;-73
2022/10/15 01:30:31;;;;;;;0.00;0.00;;;14.00;99.90;;;;;;5035736;28;20211;-74
2022/10/15 01:33:27;;;;;;;0.00;0.00;;;14.00;99.90;;;;;;5024384;28;20210;-74
2022/10/15 01:36:02;;;;;;;0.00;0.00;;;13.90;99.90;;;;;;5025812;28;20207;-75
2022/10/15 01:38:45;;;;;;;0.00;0.00;;;14.00;99.90;;;;;;5036281;28;20219;-76
2022/10/15 01:41:19;;;;;;;0.00;0.00;;;13.90;99.90;;;;;;5033009;28;20198;-75
2022/10/15 01:43:59;;;;;;;0.00;0.00;;;14.00;99.90;;;;;;5033290;28;20261;-77
2022/10/15 01:46:39;;;;;;;0.00;0.00;;;14.00;99.90;;;;;;5022479;28;20222;-74
2022/10/15 01:49:11;;;;;;;0.00;0.00;;;14.00;99.90;;;;;;5016060;28;20616;-75
2022/10/15 01:51:42;;;;;;;0.10;0.10;;;14.00;99.90;;;;;;5032085;28;20203;-75
2022/10/15 01:54:16;;;;;;;0.00;0.00;;;14.00;99.90;;;;;;5033422;28;20203;-74
2022/10/15 01:56:48;;;;;;;0.00;0.00;;;14.00;99.90;;;;;;5028992;28;20394;-73
2022/10/15 01:59:22;;;;;;;0.00;0.00;;;14.00;99.90;;;;;;5015981;28;20207;-75
2022/10/15 02:01:51;;;;;;;0.00;0.00;;;14.00;99.90;;;;;;5020219;28;20198;-73
2022/10/15 02:04:25;;;;;;;0.00;0.00;;;14.00;99.90;;;;;;5031656;28;20641;-74
2022/10/15 02:06:58;;;;;;;0.00;0.00;;;14.00;99.90;;;;;;5035057;28;20230;-75
2022/10/15 02:09:41;;;;;;;0.00;0.00;;;14.00;99.90;;;;;;5030727;28;20595;-75
2022/10/15 02:12:24;;;;;;;0.00;0.00;;;14.00;99.90;;;;;;5020092;28;20753;-77
2022/10/15 02:14:57;;;;;;;0.00;0.00;;;14.10;99.90;;;;;;5028088;28;20294;-74
2022/10/15 02:17:34;;;;;;;0.00;0.00;;;14.10;99.90;;;;;;5027911;28;20239;-75
2022/10/15 02:20:06;;;;;;;0.00;0.00;;;14.10;99.90;;;;;;5012823;28;20204;-75
2022/10/15 02:22:41;;;;;;;0.00;0.00;;;14.00;99.90;;;;;;5023727;28;20210;-74
2022/10/15 02:25:14;;;;;;;0.00;0.00;;;14.00;99.90;;;;;;5026364;28;20728;-77
2022/10/15 02:27:47;;;;;;;0.10;0.10;;;14.00;99.90;;;;;;5033168;28;20215;-75
2022/10/15 02:30:16;;;;;;;0.08;0.08;;;14.00;99.90;;;;;;5033729;28;20199;-75
2022/10/15 02:32:50;;;;;;;0.00;0.00;;;14.00;99.90;;;;;;5028253;28;20569;-76
2022/10/15 02:35:22;;;;;;;0.00;0.00;;;13.90;99.90;;;;;;5030016;28;20211;-74
2022/10/15 02:37:53;;;;;;;0.00;0.00;;;13.90;99.90;;;;;;5025750;28;20226;-75
2022/10/15 02:40:26;;;;;;;0.00;0.00;;;13.90;99.90;;;;;;5035273;28;20210;-74
2022/10/15 02:42:55;;;;;;;0.00;0.00;;;13.90;99.90;;;;;;5033861;28;20275;-74
2022/10/15 02:45:23;;;;;;;0.00;0.00;;;13.90;99.90;;;;;;5031419;28;20286;-75
2022/10/15 02:47:52;;;;;;;0.00;0.00;;;13.90;99.90;;;;;;5030730;28;20207;-76
2022/10/15 02:50:20;;;;;;;0.00;0.00;;;13.90;99.90;;;;;;5031104;28;20293;-76
2022/10/15 02:52:48;;;;;;;0.00;0.00;;;13.90;99.90;;;;;;5031201;28;20203;-74
2022/10/15 02:55:17;;;;;;;0.00;0.00;;;13.90;99.90;;;;;;5029844;28;20612;-76
2022/10/15 02:57:44;;;;;;;0.00;0.00;;;13.90;99.90;;;;;;5029652;28;20273;-75
2022/10/15 03:00:13;;;;;;;0.00;0.00;;;13.90;99.90;;;;;;5032469;28;20195;-75
2022/10/15 03:02:41;;;;;;;0.00;0.00;;;13.90;99.90;;;;;;5040492;28;20692;-75
2022/10/15 03:05:11;;;;;;;0.00;0.00;;;13.90;99.90;;;;;;5032184;28;20248;-75
2022/10/15 03:07:39;;;;;;;0.00;0.00;;;13.90;99.90;;;;;;5029740;28;20223;-77
2022/10/15 03:10:08;;;;;;;0.00;0.00;;;13.90;99.90;;;;;;5031364;28;20205;-74
2022/10/15 03:12:36;;;;;;;0.05;0.05;;;13.90;99.90;;;;;;5031651;28;20203;-75
2022/10/15 03:15:06;;;;;;;0.00;0.00;;;13.90;99.90;;;;;;5032745;28;20272;-76
2022/10/15 03:17:35;;;;;;;0.05;0.05;;;13.90;99.90;;;;;;5030896;28;20223;-76
2022/10/15 03:20:04;;;;;;;0.00;0.00;;;13.90;99.90;;;;;;5033098;28;20584;-76
2022/10/15 03:22:38;;;;;;;0.00;0.00;;;13.80;99.90;;;;;;5033960;28;20700;-76
2022/10/15 03:25:06;;;;;;;0.00;0.00;;;13.80;99.90;;;;;;5034355;28;20215;-75
2022/10/15 03:27:34;;;;;;;0.00;0.00;;;13.80;99.90;;;;;;5035348;28;20226;-74
2022/10/15 03:30:07;;;;;;;0.00;0.00;;;13.80;99.90;;;;;;5031345;28;20214;-75
2022/10/15 03:32:35;;;;;;;0.05;0.05;;;13.80;99.90;;;;;;5031147;28;20366;-75
2022/10/15 03:35:06;;;;;;;0.00;0.00;;;13.80;99.90;;;;;;5030190;28;20288;-74
2022/10/15 03:37:37;;;;;;;0.00;0.00;;;13.80;99.90;;;;;;5030395;28;20884;-73
2022/10/15 03:40:08;;;;;;;0.00;0.00;;;13.80;99.90;;;;;;5029758;28;20213;-74
2022/10/15 03:42:41;;;;;;;0.00;0.00;;;13.80;99.90;;;;;;5031031;28;20224;-75
2022/10/15 03:45:11;;;;;;;0.00;0.00;;;13.80;99.90;;;;;;5029819;28;20203;-75
2022/10/15 03:47:38;;;;;;;0.00;0.00;;;13.80;99.90;;;;;;5030471;28;20568;-74
2022/10/15 03:50:08;;;;;;;0.00;0.00;;;13.80;99.90;;;;;;5030430;28;20227;-75
2022/10/15 03:52:38;;;;;;;0.00;0.00;;;13.80;99.90;;;;;;5027468;28;20206;-74
2022/10/15 03:55:07;;;;;;;0.00;0.00;;;13.80;99.90;;;;;;5030638;28;20211;-74
2022/10/15 03:57:36;;;;;;;0.00;0.00;;;13.80;99.90;;;;;;5030217;28;20728;-78
2022/10/15 04:00:07;;;;;;;0.00;0.00;;;13.80;99.90;;;;;;5030927;28;20222;-74
2022/10/15 04:02:41;;;;;;;0.00;0.00;;;13.80;99.90;;;;;;5031162;28;20755;-74
2022/10/15 04:05:21;;;;;;;0.00;0.00;;;13.80;99.90;;;;;;5029515;28;20223;-75
2022/10/15 04:07:57;;;;;;;0.00;0.00;;;13.80;99.90;;;;;;5029800;28;20225;-74
2022/10/15 04:10:26;;;;;;;0.00;0.00;;;13.80;99.90;;;;;;5030637;28;20199;-74
2022/10/15 04:12:54;;;;;;;0.00;0.00;;;13.80;99.90;;;;;;5029470;28;20195;-74
2022/10/15 04:15:22;;;;;;;0.00;0.00;;;13.80;99.90;;;;;;5029773;28;20206;-74
2022/10/15 04:17:55;;;;;;;0.00;0.00;;;13.90;99.90;;;;;;5029974;28;20314;-75
2022/10/15 04:20:26;;;;;;;0.00;0.00;;;13.90;99.90;;;;;;5030380;28;20199;-75
2022/10/15 04:22:56;;;;;;;0.00;0.00;;;13.90;99.90;;;;;;5028875;28;20195;-75
2022/10/15 04:25:24;;;;;;;0.00;0.00;;;13.90;99.90;;;;;;5029307;28;20225;-74
2022/10/15 04:27:53;;;;;;;0.00;0.00;;;13.90;99.90;;;;;;5029511;28;20231;-74
2022/10/15 04:30:21;;;;;;;0.00;0.00;;;13.90;99.90;;;;;;5031516;28;20233;-73
2022/10/15 04:32:54;;;;;;;0.00;0.00;;;13.90;99.90;;;;;;5027599;28;20261;-74
2022/10/15 04:35:23;;;;;;;0.00;0.00;;;13.90;99.90;;;;;;5027213;28;20199;-74
2022/10/15 04:37:59;;;;;;;0.00;0.00;;;13.90;99.90;;;;;;5027795;28;20284;-75
2022/10/15 04:40:45;;;;;;;0.00;0.00;;;13.90;99.90;;;;;;5009925;28;20299;-75
2022/10/15 04:43:13;;;;;;;0.00;0.00;;;13.90;99.90;;;;;;5023946;28;20215;-75
2022/10/15 04:45:41;;;;;;;0.00;0.00;;;13.90;99.90;;;;;;5028741;28;20215;-75
2022/10/15 04:48:09;;;;;;;0.00;0.00;;;13.90;99.90;;;;;;5028830;28;20219;-75
2022/10/15 04:50:37;;;;;;;0.00;0.00;;;13.90;99.90;;;;;;5030093;28;20690;-75
2022/10/15 04:53:20;;;;;;;0.00;0.00;;;13.90;99.90;;;;;;5028006;28;20579;-75
2022/10/15 04:55:51;;;;;;;0.00;0.00;;;13.90;99.90;;;;;;5028164;28;20585;-75
2022/10/15 04:58:20;;;;;;;0.00;0.00;;;13.90;99.90;;;;;;5029713;28;20237;-76
2022/10/15 05:00:49;;;;;;;0.00;0.00;;;13.90;99.90;;;;;;5029799;28;20203;-76
2022/10/15 05:03:30;;;;;;;0.00;0.00;;;13.90;99.90;;;;;;5030617;28;20288;-76
2022/10/15 05:06:04;;;;;;;0.00;0.00;;;13.90;99.90;;;;;;5030720;28;20302;-75
2022/10/15 05:08:35;;;;;;;0.00;0.00;;;13.90;99.90;;;;;;5029848;28;20318;-76
2022/10/15 05:11:13;;;;;;;0.00;0.00;;;13.90;99.90;;;;;;5013722;28;20253;-76
2022/10/15 05:13:42;;;;;;;0.00;0.00;;;13.90;99.90;;;;;;5031570;28;20320;-78
2022/10/15 05:16:12;;;;;;;0.00;0.00;;;13.90;99.90;;;;;;5033964;28;20202;-75
2022/10/15 05:18:41;;;;;;;0.00;0.00;;;13.90;99.90;;;;;;5033033;28;20235;-76
2022/10/15 05:21:10;;;;;;;0.00;0.00;;;13.90;99.90;;;;;;5032316;28;20203;-74
2022/10/15 05:23:41;;;;;;;0.00;0.00;;;13.90;99.90;;;;;;5031830;28;20203;-76
2022/10/15 05:26:21;;;;;;;0.00;0.00;;;13.90;99.90;;;;;;5033131;28;20202;-75
2022/10/15 05:28:49;;;;;;;0.00;0.00;;;13.90;99.90;;;;;;5030525;28;20206;-74
2022/10/15 05:31:27;;;;;;;0.00;0.00;;;13.90;99.90;;;;;;5043629;28;20199;-75
2022/10/15 05:34:12;;;;;;;0.00;0.00;;;14.00;99.90;;;;;;5013271;28;20215;-75
2022/10/15 05:36:46;;;;;;;0.00;0.00;;;14.00;99.90;;;;;;5012774;28;20606;-75
2022/10/15 05:39:17;;;;;;;0.00;0.00;;;14.00;99.90;;;;;;5012718;28;20203;-76
2022/10/15 05:41:45;;;;;;;0.00;0.00;;;14.00;99.90;;;;;;5012970;28;20205;-76
2022/10/15 05:44:14;;;;;;;0.00;0.00;;;14.00;99.90;;;;;;5013405;28;20624;-75
2022/10/15 05:46:42;;;;;;;0.00;0.00;;;14.00;99.90;;;;;;5013076;28;20235;-74
2022/10/15 05:49:15;;;;;;;0.00;0.00;;;14.00;99.90;;;;;;5012706;28;20220;-74
2022/10/15 05:51:50;;;;;;;0.00;0.00;;;14.00;99.90;;;;;;5012573;28;20301;-75
2022/10/15 05:54:34;;;;;;;0.00;0.00;;;14.00;99.90;;;;;;5012853;28;20623;-75
2022/10/15 05:57:02;;;;;;;0.00;0.00;;;14.00;99.90;;;;;;5014106;28;20282;-76
2022/10/15 05:59:30;;;;;;;0.00;0.00;;;13.90;99.90;;;;;;5014514;28;20200;-78
2022/10/15 06:01:58;;;;;;;0.00;0.00;;;13.90;99.90;;;;;;5020477;28;20203;-75
2022/10/15 06:04:26;;;;;;;0.00;0.00;;;13.90;99.90;;;;;;5033487;28;20209;-75
2022/10/15 06:06:58;;;;;;;0.00;0.00;;;13.90;99.90;;;;;;5035415;28;20261;-77
2022/10/15 06:09:27;;;;;;;0.00;0.00;;;13.90;99.90;;;;;;5039098;28;20372;-74
2022/10/15 06:11:56;;;;;;;0.00;0.00;;;14.00;99.90;;;;;;5036302;28;20199;-76
2022/10/15 06:14:25;;;;;;;0.00;0.00;;;14.00;99.90;;;;;;5032544;28;20195;-75
2022/10/15 06:16:53;;;;;;;0.00;0.00;;;13.90;99.90;;;;;;5033664;28;20257;-74
2022/10/15 06:19:21;;;;;;;0.00;0.00;;;14.00;99.90;;;;;;5033498;28;20733;-75
2022/10/15 06:21:49;;;;;;;0.00;0.00;;;14.00;99.90;;;;;;5033665;28;20198;-75
2022/10/15 06:24:17;;;;;;;0.00;0.00;;;14.00;99.90;;;;;;5033865;28;20264;-75
2022/10/15 06:26:45;;;;;;;0.00;0.00;;;14.00;99.90;;;;;;5033274;28;20733;-77
2022/10/15 06:29:14;;;;;;;0.00;0.00;;;14.00;99.90;;;;;;5033084;28;20203;-76
2022/10/15 06:31:42;;;;;;;0.00;0.00;;;14.00;99.90;;;;;;5032901;28;20203;-75
2022/10/15 06:34:10;;;;;;;0.00;0.00;;;14.10;99.90;;;;;;5033094;28;20252;-74
2022/10/15 06:36:38;;;;;;;0.00;0.00;;;14.10;99.90;;;;;;5033158;28;20600;-75
2022/10/15 06:39:06;;;;;;;0.00;0.00;;;14.10;99.90;;;;;;5032665;28;20674;-75
2022/10/15 06:41:34;;;;;;;0.00;0.00;;;14.20;99.90;;;;;;5033110;28;20195;-76
2022/10/15 06:44:01;;;;;;;0.00;0.00;;;14.20;99.90;;;;;;5032802;28;20261;-76
2022/10/15 06:46:31;;;;;;;0.00;0.00;;;14.20;99.90;;;;;;5032760;28;20222;-77
2022/10/15 06:48:58;;;;;;;0.00;0.00;;;14.20;99.90;;;;;;5032485;28;20268;-75
2022/10/15 06:51:26;;;;;;;0.00;0.00;;;14.30;99.90;;;;;;5032947;28;20702;-76
2022/10/15 06:53:54;;;;;;;0.00;0.00;;;14.30;99.90;;;;;;5032748;28;20195;-77
2022/10/15 06:56:22;;;;;;;0.00;0.00;;;14.30;99.90;;;;;;5033053;28;20195;-76
2022/10/15 06:58:50;;;;;;;0.00;0.00;;;14.40;99.90;;;;;;5032489;28;20207;-74
2022/10/15 07:01:18;;;;;;;0.00;0.00;;;14.40;99.90;;;;;;5032441;28;20187;-76
2022/10/15 07:03:50;;;;;;;0.00;0.00;;;14.40;99.90;;;;;;5030524;28;20265;-76
2022/10/15 07:06:18;;;;;;;0.00;0.00;;;14.40;99.90;;;;;;5031660;28;20249;-76
2022/10/15 07:08:46;;;;;;;0.00;0.00;;;14.50;99.90;;;;;;5046683;28;20214;-75
2022/10/15 07:11:14;;;;;;;0.00;0.00;;;14.50;99.90;;;;;;5051629;28;20222;-76
2022/10/15 07:13:43;;;;;;;0.00;0.00;;;14.50;99.90;;;;;;5051520;28;20198;-76
2022/10/15 07:16:12;;;;;;;0.00;0.00;;;14.50;99.90;;;;;;5054772;28;20612;-75
2022/10/15 07:18:40;;;;;;;0.00;0.00;;;14.50;99.90;;;;;;5051984;28;20252;-76
2022/10/15 07:21:10;;;;;;;0.00;0.00;;;14.60;99.90;;;;;;5051268;28;20251;-75
2022/10/15 07:23:43;;;;;;;0.00;0.00;;;14.60;99.90;;;;;;5045386;28;20213;-75
2022/10/15 07:26:11;;;;;;;0.00;0.00;;;14.60;99.90;;;;;;5030719;28;20199;-76
2022/10/15 07:28:40;;;;;;;0.00;0.00;;;14.60;99.90;;;;;;5031438;28;20245;-76
2022/10/15 07:31:08;;;;;;;0.00;0.00;;;14.60;99.90;;;;;;5031503;28;20301;-76
2022/10/15 07:33:36;;;;;;;0.00;0.00;;;14.70;99.90;;;;;;5031948;28;20199;-76
2022/10/15 07:36:05;;;;;;;0.00;0.00;;;14.70;99.90;;;;;;5051258;28;20677;-76
2022/10/15 07:38:35;;;;;;;0.00;0.00;;;14.70;99.90;;;;;;5050922;28;20219;-76
2022/10/15 07:41:04;;;;;;;0.00;0.00;;;14.70;99.90;;;;;;5051107;28;20194;-76
2022/10/15 07:43:40;;;;;;;0.00;0.00;;;14.70;99.90;;;;;;5050890;28;20189;-76
2022/10/15 07:46:08;;;;;;;0.00;0.00;;;14.70;99.90;;;;;;5051752;28;20196;-75
2022/10/15 07:48:36;;;;;;;0.00;0.00;;;14.80;99.90;;;;;;5050190;28;20226;-75
2022/10/15 07:51:06;;;;;;;0.00;0.00;;;14.80;99.90;;;;;;5042047;28;20269;-76
2022/10/15 07:53:37;;;;;;;0.00;0.00;;;14.80;99.90;;;;;;5020972;28;20737;-76
2022/10/15 07:56:07;;;;;;;0.00;0.00;;;14.80;99.90;;;;;;5023517;28;20210;-76
2022/10/15 07:58:37;;;;;;;0.00;0.00;;;14.80;99.90;;;;;;5026814;28;103106;-76
2022/10/15 08:01:06;;;;;;;0.00;0.00;;;14.80;99.90;;;;;;5021036;28;20621;-75
2022/10/15 08:03:34;;;;;;;0.00;0.00;;;14.90;99.90;;;;;;5032133;28;20270;-76
2022/10/15 08:06:03;;;;;;;0.00;0.00;;;14.90;99.90;;;;;;5015821;28;20211;-76
2022/10/15 08:08:33;;;;;;;0.00;0.00;;;14.90;99.90;;;;;;5011900;28;20262;-76
2022/10/15 08:11:06;;;;;;;0.00;0.00;;;14.90;99.90;;;;;;5026508;28;20218;-76
2022/10/15 08:13:34;;;;;;;0.00;0.00;;;14.90;99.90;;;;;;5051557;28;20195;-76
2022/10/15 08:16:02;;;;;;;0.00;0.00;;;14.90;99.90;;;;;;5051504;28;20198;-75
2022/10/15 08:18:30;;;;;;;0.00;0.00;;;15.00;99.90;;;;;;5032176;28;20218;-75
2022/10/15 08:21:00;;;;;;;0.00;0.00;;;15.00;99.90;;;;;;5031604;28;20191;-76
2022/10/15 08:23:28;;;;;;;0.00;0.00;;;15.00;99.90;;;;;;5031025;28;20655;-76
2022/10/15 08:25:58;;;;;;;0.00;0.00;;;15.00;99.90;;;;;;5016515;28;20203;-76
2022/10/15 08:28:27;;;;;;;0.00;0.00;;;15.10;99.90;;;;;;5017951;28;20218;-75
2022/10/15 08:30:57;;;;;;;0.00;0.00;;;15.10;99.90;;;;;;5047380;28;20714;-75
2022/10/15 08:33:32;;;;;;;0.00;0.00;;;15.10;99.90;;;;;;5031807;28;20229;-75
2022/10/15 08:36:00;;;;;;;0.00;0.00;;;15.00;99.90;;;;;;5032111;28;20199;-76
2022/10/15 08:38:29;;;;;;;0.00;0.00;;;15.10;99.90;;;;;;5044511;28;20233;-76
2022/10/15 08:41:00;;;;;;;0.00;0.00;;;15.10;99.90;;;;;;5053277;28;20621;-76
2022/10/15 08:43:35;;;;;;;0.00;0.00;;;15.10;99.90;;;;;;5042314;28;20564;-76
2022/10/15 08:46:09;;;;;;;0.00;0.00;;;15.20;99.90;;;;;;5035532;28;20194;-76
2022/10/15 08:48:41;;;;;;;0.00;0.00;;;15.20;99.90;;;;;;5023300;28;20651;-77
2022/10/15 08:51:13;;;;;;;0.00;0.00;;;15.30;99.90;;;;;;5032983;28;20223;-76
2022/10/15 08:53:48;;;;;;;0.00;0.00;;;15.30;99.90;;;;;;5039029;28;20202;-76
2022/10/15 08:56:20;;;;;;;0.00;0.00;;;15.30;99.90;;;;;;5045663;28;20620;-76
2022/10/15 08:59:00;;;;;;;0.00;0.00;;;15.30;99.90;;;;;;5021689;28;20235;-77
2022/10/15 09:01:33;;;;;;;0.00;0.00;;;15.30;99.90;;;;;;5016285;28;20336;-76
2022/10/15 09:04:14;;;;;;;0.00;0.00;;;15.40;99.90;;;;;;5031163;28;20265;-76
2022/10/15 09:06:42;;;;;;;0.00;0.00;;;15.40;99.90;;;;;;5040030;28;20215;-77
2022/10/15 09:09:19;;;;;;;0.00;0.00;;;15.50;99.90;;;;;;5030050;28;20195;-76
2022/10/15 09:11:58;;;;;;;0.00;0.00;;;15.50;99.90;;;;;;5015470;28;20215;-77
2022/10/15 09:14:35;;;;;;;0.00;0.00;;;15.50;99.90;;;;;;5015696;28;20678;-77
2022/10/15 09:17:12;;;;;;;0.00;0.00;;;15.50;99.90;;;;;;5015899;28;20234;-77
2022/10/15 09:19:44;;;;;;;0.00;0.00;;;15.50;99.90;;;;;;5015479;28;20733;-77
2022/10/15 09:22:17;;;;;;;0.00;0.00;;;15.50;99.90;;;;;;5015531;28;20213;-77
2022/10/15 09:24:45;;;;;;;0.00;0.00;;;15.40;99.90;;;;;;5016336;28;20207;-77
2022/10/15 09:27:23;;;;;;;0.00;0.00;;;15.50;99.90;;;;;;5015816;28;20263;-77
2022/10/15 09:30:02;;;;;;;0.00;0.00;;;15.50;99.90;;;;;;5016766;28;20749;-77
2022/10/15 09:32:36;;;;;;;0.00;0.00;;;15.70;99.90;;;;;;5016870;28;20780;-77
2022/10/15 09:35:15;;;;;;;0.00;0.00;;;15.70;99.90;;;;;;5015542;28;20203;-77
2022/10/15 09:37:49;;;;;;;0.00;0.00;;;15.80;99.90;;;;;;5015320;28;20711;-77
2022/10/15 09:40:39;;;;;;;0.00;0.00;;;15.90;99.90;;;;;;5015674;28;20329;-77
2022/10/15 09:43:10;;;;;;;0.00;0.00;;;15.90;99.90;;;;;;5015405;28;20196;-77
2022/10/15 09:45:39;;;;;;;0.00;0.00;;;15.90;99.90;;;;;;5016341;28;20206;-77
2022/10/15 09:48:17;;;;;;;0.00;0.00;;;15.90;99.90;;;;;;5014475;28;20223;-76
2022/10/15 09:50:55;;;;;;;0.00;0.00;;;15.90;99.90;;;;;;5016719;28;20203;-77
2022/10/15 09:53:32;;;;;;;0.00;0.00;;;15.90;99.90;;;;;;5015453;28;20215;-77
2022/10/15 09:56:06;;;;;;;0.00;0.00;;;16.00;99.90;;;;;;5016125;28;20696;-76
2022/10/15 09:58:42;;;;;;;0.00;0.00;;;16.00;99.90;;;;;;5016390;28;20228;-77
2022/10/15 10:01:19;;;;;;;0.00;0.00;;;16.10;99.90;;;;;;5017126;28;20192;-77
2022/10/15 10:03:53;;;;;;;0.00;0.00;;;16.10;99.90;;;;;;5017594;28;20202;-77
2022/10/15 10:06:23;;;;;;;0.00;0.00;;;16.20;99.90;;;;;;5018759;28;20702;-77
2022/10/15 10:08:54;;;;;;;0.00;0.00;;;16.20;99.90;;;;;;5026484;28;20196;-77
2022/10/15 10:11:24;;;;;;;0.00;0.00;;;16.30;99.90;;;;;;5033307;28;20207;-77
2022/10/15 10:13:55;;;;;;;0.00;0.00;;;16.30;99.90;;;;;;5035923;28;20216;-77
2022/10/15 10:16:26;;;;;;;0.00;0.00;;;16.30;99.90;;;;;;5038191;28;20188;-77
2022/10/15 10:19:11;;;;;;;0.00;0.00;;;16.30;99.90;;;;;;5029650;28;20203;-77
2022/10/15 10:21:41;;;;;;;0.00;0.00;;;16.30;99.90;;;;;;5013880;28;20246;-77
2022/10/15 10:24:22;;;;;;;0.00;0.00;;;16.40;99.90;;;;;;5014265;28;20195;-77
2022/10/15 10:26:50;;;;;;;0.00;0.00;;;16.50;99.90;;;;;;5014282;28;20219;-77
2022/10/15 10:29:20;;;;;;;0.00;0.00;;;16.60;99.90;;;;;;5014288;28;20597;-77
2022/10/15 10:32:10;;;;;;;0.00;0.00;;;16.60;99.90;;;;;;5013692;28;20242;-77
2022/10/15 10:34:38;;;;;;;0.00;0.00;;;16.60;99.90;;;;;;5013909;28;20191;-77
2022/10/15 10:37:08;;;;;;;0.00;0.00;;;16.60;99.90;;;;;;5013659;28;20292;-77
2022/10/15 10:39:36;;;;;;;0.00;0.00;;;16.60;99.90;;;;;;5013821;28;20627;-77
2022/10/15 10:42:07;;;;;;;0.00;0.00;;;16.70;99.90;;;;;;5014237;28;20208;-77
2022/10/15 10:44:36;;;;;;;0.00;0.00;;;16.70;99.90;;;;;;5014323;28;20235;-79
2022/10/15 10:47:12;;;;;;;0.00;0.00;;;16.70;99.90;;;;;;5015097;28;20215;-76
2022/10/15 10:49:42;;;;;;;0.00;0.00;;;16.70;99.90;;;;;;5014630;28;20195;-79
2022/10/15 10:52:29;;;;;;;0.00;0.00;;;16.70;99.90;;;;;;5014369;28;20230;-79
2022/10/15 10:55:02;;;;;;;0.00;0.00;;;16.60;99.90;;;;;;5014807;28;20200;-79
2022/10/15 10:57:41;;;;;;;0.00;0.00;;;16.70;99.90;;;;;;5015359;28;20250;-79
2022/10/15 11:00:14;;;;;;;0.00;0.00;;;16.70;99.90;;;;;;5011935;28;20203;-78
2022/10/15 11:02:48;;;;;;;0.00;0.00;;;16.70;99.90;;;;;;5014213;28;20207;-78
2022/10/15 11:05:24;;;;;;;0.00;0.00;;;16.70;99.90;;;;;;5014393;28;20200;-77
2022/10/15 11:07:58;;;;;;;0.00;0.00;;;16.70;99.90;;;;;;5012507;28;20216;-76
2022/10/15 11:10:32;;;;;;;0.00;0.00;;;16.70;99.90;;;;;;5012893;28;20242;-77
2022/10/15 11:13:17;;;;;;;0.00;0.00;;;16.70;99.90;;;;;;5012883;28;20215;-76
2022/10/15 11:15:52;;;;;;;0.00;0.00;;;16.80;99.90;;;;;;5012913;28;20744;-76
2022/10/15 11:18:32;;;;;;;0.00;0.00;;;16.70;99.90;;;;;;5013452;28;20211;-76
2022/10/15 11:21:17;;;;;;;0.00;0.00;;;16.80;99.90;;;;;;5010584;28;20238;-76
2022/10/15 11:24:03;;;;;;;0.00;0.00;;;16.80;99.90;;;;;;5024783;28;20190;-77
2022/10/15 11:26:48;;;;;;;0.00;0.00;;;16.80;99.90;;;;;;5016860;28;20196;-77
2022/10/15 11:29:53;;;;;;;0.00;0.00;;;16.80;99.90;;;;;;5019560;28;20210;-77
2022/10/15 11:32:38;;;;;;;0.00;0.00;;;16.80;99.90;;;;;;5033129;28;20214;-76
2022/10/15 11:35:42;;;;;;;0.00;0.00;;;16.90;99.90;;;;;;5032317;28;20285;-76
2022/10/15 11:38:33;;;;;;;0.00;0.00;;;17.10;99.90;;;;;;5031943;28;20249;-77
2022/10/15 11:41:27;;;;;;;0.00;0.00;;;17.10;99.90;;;;;;5032881;28;20199;-77
2022/10/15 11:44:06;;;;;;;0.00;0.00;;;17.00;99.90;;;;;;5031992;28;20218;-77
2022/10/15 11:46:41;;;;;;;0.00;0.00;;;17.10;99.90;;;;;;5032910;28;20316;-76
2022/10/15 11:49:31;;;;;;;0.00;0.00;;;17.10;99.90;;;;;;5032133;28;20187;-77
2022/10/15 11:52:27;;;;;;;0.00;0.00;;;17.10;99.90;;;;;;5032353;28;20191;-76
2022/10/15 11:55:03;;;;;;;0.00;0.00;;;17.00;99.90;;;;;;5032013;28;20252;-76
2022/10/15 11:57:34;;;;;;;0.00;0.00;;;17.00;99.90;;;;;;5031715;28;20218;-76
2022/10/15 12:00:06;;;;;;;0.00;0.00;;;17.00;99.90;;;;;;5032651;28;20578;-76
2022/10/15 12:02:39;;;;;;;0.00;0.00;;;16.90;99.90;;;;;;5032389;28;20266;-76
2022/10/15 12:05:13;;;;;;;0.00;0.00;;;16.80;99.90;;;;;;5032824;28;20207;-77
2022/10/15 12:07:44;;;;;;;0.00;0.00;;;16.80;99.90;;;;;;5031679;28;20265;-77
2022/10/15 12:10:30;;;;;;;0.00;0.00;;;16.90;99.90;;;;;;5032142;28;20282;-77
2022/10/15 12:13:08;;;;;;;0.00;0.00;;;16.80;99.90;;;;;;5030917;28;20218;-77
2022/10/15 12:15:42;;;;;;;0.00;0.00;;;16.80;99.90;;;;;;5031762;28;20198;-76
2022/10/15 12:18:20;;;;;;;0.00;0.00;;;16.80;99.90;;;;;;5031861;28;20273;-77
2022/10/15 12:20:49;;;;;;;0.00;0.00;;;16.80;99.90;;;;;;5031851;28;20191;-77
2022/10/15 12:23:25;;;;;;;0.00;0.00;;;16.80;99.90;;;;;;5032189;28;20191;-77
2022/10/15 12:25:54;;;;;;;0.00;0.00;;;16.80;99.90;;;;;;5032024;28;20193;-77
2022/10/15 12:28:32;;;;;;;0.00;0.00;;;16.70;99.90;;;;;;5031618;28;20222;-77
2022/10/15 12:31:01;;;;;;;0.00;0.00;;;16.70;99.90;;;;;;5032318;28;20206;-77
2022/10/15 12:33:33;;;;;;;0.00;0.00;;;16.80;99.90;;;;;;5034186;28;20218;-77
2022/10/15 12:36:07;;;;;;;0.00;0.00;;;16.80;99.90;;;;;;5032906;28;20195;-77
2022/10/15 12:38:39;;;;;;;0.00;0.00;;;16.80;99.90;;;;;;5031877;28;20650;-77
2022/10/15 12:41:10;;;;;;;0.00;0.00;;;16.90;99.90;;;;;;5032799;28;20226;-76
2022/10/15 12:43:41;;;;;;;0.00;0.00;;;16.90;99.90;;;;;;5032851;28;20233;-77
2022/10/15 12:46:11;;;;;;;0.00;0.00;;;16.90;99.90;;;;;;5031383;28;20663;-76
2022/10/15 12:48:42;;;;;;;0.00;0.00;;;16.90;99.90;;;;;;5025097;28;20227;-77
2022/10/15 12:51:34;;;;;;;0.00;0.00;;;17.00;99.90;;;;;;5014796;28;20246;-76
2022/10/15 12:54:32;;;;;;;0.10;0.10;;;17.00;99.90;;;;;;5011433;28;20215;-77
2022/10/15 12:57:00;;;;;;;0.00;0.00;;;17.00;99.90;;;;;;5011746;28;20245;-77
2022/10/15 12:59:31;;;;;;;0.00;0.00;;;17.10;99.90;;;;;;5012869;28;20327;-76
2022/10/15 13:02:02;;;;;;;0.00;0.00;;;17.10;99.90;;;;;;5012293;28;20726;-77
2022/10/15 13:04:39;;;;;;;0.00;0.00;;;17.10;99.90;;;;;;5012263;28;20246;-77
2022/10/15 13:07:14;;;;;;;0.00;0.00;;;17.20;99.90;;;;;;5012173;28;20536;-77
2022/10/15 13:09:43;;;;;;;0.00;0.00;;;17.20;99.90;;;;;;5011347;28;20674;-77
2022/10/15 13:12:22;;;;;;;0.00;0.00;;;17.20;99.90;;;;;;5012501;28;20346;-77
2022/10/15 13:14:57;;;;;;;0.00;0.00;;;17.30;99.90;;;;;;5014844;28;20216;-76
2022/10/15 13:17:26;;;;;;;0.00;0.00;;;17.40;99.90;;;;;;5017185;28;20234;-76